createdAt,value
2018-08-11T00:00:05.365Z,99.90
2018-08-11T00:02:33.716Z,99.90
2018-08-11T00:05:02.035Z,99.90
2018-08-11T00:07:30.350Z,99.90
2018-08-11T00:09:58.643Z,99.90
2018-08-11T00:12:26.956Z,99.90
2018-08-11T00:14:55.259Z,99.90
2018-08-11T00:17:23.566Z,99.90
2018-08-11T00:19:51.871Z,99.90
2018-08-11T00:22:20.200Z,99.90
2018-08-11T00:24:48.501Z,99.90
2018-08-11T00:27:16.816Z,99.90
2018-08-11T00:29:45.120Z,99.90
2018-08-11T00:32:13.456Z,99.90
2018-08-11T00:34:41.771Z,99.90
2018-08-11T00:37:10.095Z,99.90
2018-08-11T00:39:38.406Z,99.90
2018-08-11T00:42:06.720Z,99.90
2018-08-11T00:44:35.044Z,99.90
2018-08-11T00:47:03.347Z,99.90
2018-08-11T00:49:31.739Z,99.90
2018-08-11T00:52:06.792Z,99.90
2018-08-11T00:54:35.104Z,99.90
2018-08-11T00:57:03.701Z,99.90
2018-08-11T00:59:32.211Z,99.90
2018-08-11T01:02:00.504Z,99.90
2018-08-11T01:04:28.831Z,99.90
2018-08-11T01:06:57.128Z,99.90
2018-08-11T01:09:25.440Z,99.90
2018-08-11T01:11:53.748Z,99.90
2018-08-11T01:14:22.076Z,99.90
2018-08-11T01:16:50.376Z,99.90
2018-08-11T01:19:18.693Z,99.90
2018-08-11T01:21:47.019Z,99.90
2018-08-11T01:24:15.336Z,99.90
2018-08-11T01:26:43.635Z,99.90
2018-08-11T01:29:11.952Z,99.90
2018-08-11T01:31:40.259Z,99.90
2018-08-11T01:34:08.592Z,99.90
2018-08-11T01:36:36.904Z,99.90
2018-08-11T01:39:06.680Z,99.90
2018-08-11T01:41:34.983Z,99.90
2018-08-11T01:44:03.621Z,99.90
2018-08-11T01:46:32.040Z,99.90
2018-08-11T01:49:00.764Z,99.90
2018-08-11T01:51:29.088Z,99.90
2018-08-11T01:53:57.499Z,99.90
2018-08-11T01:56:26.024Z,99.90
2018-08-11T01:58:54.336Z,99.90
2018-08-11T02:01:22.641Z,99.90
2018-08-11T02:03:50.960Z,99.90
2018-08-11T02:06:19.260Z,99.90
2018-08-11T02:08:47.576Z,99.90
2018-08-11T02:11:15.910Z,99.90
2018-08-11T02:13:44.232Z,99.90
2018-08-11T02:16:12.544Z,99.90
2018-08-11T02:18:40.847Z,99.90
2018-08-11T02:21:09.161Z,99.90
2018-08-11T02:23:37.475Z,99.90
2018-08-11T02:26:05.795Z,99.90
2018-08-11T02:28:34.115Z,99.90
2018-08-11T02:31:02.412Z,99.90
2018-08-11T02:33:30.720Z,99.90
2018-08-11T02:35:59.013Z,99.90
2018-08-11T02:38:27.336Z,99.90
2018-08-11T02:40:55.652Z,99.90
2018-08-11T02:43:24.019Z,99.90
2018-08-11T02:45:52.296Z,99.90
2018-08-11T02:48:20.627Z,99.90
2018-08-11T02:50:48.924Z,99.90
2018-08-11T02:53:17.248Z,99.90
2018-08-11T02:55:45.667Z,99.90
2018-08-11T02:58:14.008Z,99.90
2018-08-11T03:00:42.309Z,99.90
2018-08-11T03:03:10.606Z,99.90
2018-08-11T03:05:38.931Z,99.90
2018-08-11T03:08:07.236Z,99.90
2018-08-11T03:10:35.553Z,99.90
2018-08-11T03:13:04.170Z,99.90
2018-08-11T03:15:32.490Z,99.90
2018-08-11T03:18:00.795Z,99.90
2018-08-11T03:20:29.102Z,99.90
2018-08-11T03:22:57.399Z,99.90
2018-08-11T03:25:25.720Z,99.90
2018-08-11T03:27:54.015Z,99.90
2018-08-11T03:30:22.341Z,99.90
2018-08-11T03:32:50.663Z,99.90
2018-08-11T03:35:18.980Z,99.90
2018-08-11T03:37:47.275Z,99.90
2018-08-11T03:40:15.588Z,99.90
2018-08-11T03:42:43.895Z,99.90
2018-08-11T03:45:12.303Z,99.90
2018-08-11T03:47:40.600Z,99.90
2018-08-11T03:50:08.908Z,99.90
2018-08-11T03:52:37.495Z,99.90
2018-08-11T03:55:05.858Z,99.90
2018-08-11T03:57:34.148Z,99.90
2018-08-11T04:00:02.516Z,99.90
2018-08-11T04:02:30.856Z,99.90
2018-08-11T04:04:59.174Z,99.90
2018-08-11T04:07:27.463Z,99.90
2018-08-11T04:09:55.780Z,99.90
2018-08-11T04:12:24.080Z,99.90
2018-08-11T04:14:52.391Z,99.90
2018-08-11T04:17:24.924Z,99.90
2018-08-11T04:19:53.235Z,99.90
2018-08-11T04:22:21.527Z,99.90
2018-08-11T04:24:49.843Z,99.90
2018-08-11T04:27:18.140Z,99.90
2018-08-11T04:29:46.457Z,99.90
2018-08-11T04:32:14.760Z,99.90
2018-08-11T04:34:43.081Z,99.90
2018-08-11T04:37:11.380Z,99.90
2018-08-11T04:39:39.696Z,99.90
2018-08-11T04:42:08.061Z,99.90
2018-08-11T04:44:36.344Z,99.90
2018-08-11T04:47:04.656Z,99.90
2018-08-11T04:49:32.989Z,99.90
2018-08-11T04:52:01.280Z,99.90
2018-08-11T04:54:29.607Z,99.90
2018-08-11T04:56:57.929Z,99.90
2018-08-11T04:59:26.279Z,99.90
2018-08-11T05:01:54.575Z,99.90
2018-08-11T05:04:22.885Z,99.90
2018-08-11T05:06:51.181Z,99.90
2018-08-11T05:09:19.495Z,99.90
2018-08-11T05:11:47.807Z,99.90
2018-08-11T05:14:16.171Z,99.90
2018-08-11T05:16:44.467Z,99.90
2018-08-11T05:19:12.792Z,99.90
2018-08-11T05:21:41.112Z,99.90
2018-08-11T05:24:09.411Z,99.90
2018-08-11T05:26:37.742Z,99.90
2018-08-11T05:29:06.035Z,99.90
2018-08-11T05:31:34.395Z,99.90
2018-08-11T05:34:02.704Z,99.90
2018-08-11T05:36:31.020Z,99.90
2018-08-11T05:38:59.328Z,99.90
2018-08-11T05:41:27.634Z,99.90
2018-08-11T05:43:55.935Z,99.90
2018-08-11T05:46:24.247Z,99.90
2018-08-11T05:48:52.536Z,99.90
2018-08-11T05:51:20.843Z,99.90
2018-08-11T05:53:49.141Z,99.90
2018-08-11T05:56:17.492Z,99.90
2018-08-11T05:58:45.784Z,99.90
2018-08-11T06:01:14.100Z,99.90
2018-08-11T06:03:42.388Z,99.90
2018-08-11T06:06:10.696Z,99.90
2018-08-11T06:08:39.004Z,99.90
2018-08-11T06:11:07.311Z,99.90
2018-08-11T06:13:35.604Z,99.90
2018-08-11T06:16:03.942Z,99.90
2018-08-11T06:18:32.244Z,99.90
2018-08-11T06:21:00.582Z,99.90
2018-08-11T06:23:28.892Z,99.90
2018-08-11T06:25:57.199Z,99.90
2018-08-11T06:28:25.512Z,99.90
2018-08-11T06:30:53.839Z,99.90
2018-08-11T06:33:22.132Z,99.90
2018-08-11T06:35:50.443Z,99.90
2018-08-11T06:38:18.744Z,99.90
2018-08-11T06:40:47.105Z,99.90
2018-08-11T06:43:15.367Z,99.90
2018-08-11T06:45:43.676Z,99.90
2018-08-11T06:48:11.976Z,99.90
2018-08-11T06:50:40.292Z,99.90
2018-08-11T06:53:08.575Z,99.90
2018-08-11T06:55:37.030Z,99.90
2018-08-11T06:58:05.276Z,99.90
2018-08-11T07:00:33.591Z,99.90
2018-08-11T07:03:01.899Z,99.90
2018-08-11T07:05:30.207Z,99.90
2018-08-11T07:07:58.513Z,99.90
2018-08-11T07:10:26.820Z,99.90
2018-08-11T07:12:55.112Z,99.90
2018-08-11T07:15:23.457Z,99.90
2018-08-11T07:17:51.739Z,99.90
2018-08-11T07:20:20.049Z,99.90
2018-08-11T07:22:48.339Z,99.90
2018-08-11T07:25:16.797Z,99.90
2018-08-11T07:27:45.125Z,99.90
2018-08-11T07:30:13.445Z,99.90
2018-08-11T07:32:41.764Z,99.90
2018-08-11T07:35:10.052Z,99.90
2018-08-11T07:37:38.363Z,99.90
2018-08-11T07:40:06.772Z,99.90
2018-08-11T07:42:35.110Z,99.90
2018-08-11T07:45:03.434Z,99.90
2018-08-11T07:47:31.813Z,99.90
2018-08-11T07:50:00.072Z,99.90
2018-08-11T07:52:28.384Z,99.90
2018-08-11T07:54:56.695Z,99.90
2018-08-11T07:57:25.016Z,99.90
2018-08-11T07:59:53.311Z,99.90
2018-08-11T08:02:21.620Z,99.90
2018-08-11T08:04:49.908Z,99.70
2018-08-11T08:07:18.236Z,99.50
2018-08-11T08:09:46.524Z,99.60
2018-08-11T08:12:14.833Z,99.10
2018-08-11T08:14:43.124Z,98.60
2018-08-11T08:17:11.440Z,98.10
2018-08-11T08:19:39.739Z,98.50
2018-08-11T08:22:08.176Z,98.60
2018-08-11T08:24:36.479Z,98.40
2018-08-11T08:27:04.822Z,98.50
2018-08-11T08:29:33.125Z,98.80
2018-08-11T08:32:01.441Z,99.10
2018-08-11T08:34:29.748Z,99.90
2018-08-11T08:36:58.060Z,99.10
2018-08-11T08:39:26.365Z,99.30
2018-08-11T08:41:54.714Z,98.50
2018-08-11T08:44:23.009Z,98.40
2018-08-11T08:46:51.328Z,98.40
2018-08-11T08:49:19.626Z,98.40
2018-08-11T08:51:47.944Z,99.10
2018-08-11T08:54:16.236Z,99.40
2018-08-11T08:56:44.566Z,99.20
2018-08-11T08:59:12.914Z,98.90
2018-08-11T09:01:41.211Z,99.10
2018-08-11T09:04:09.506Z,97.70
2018-08-11T09:06:37.836Z,98.10
2018-08-11T09:09:08.424Z,97.80
2018-08-11T09:11:36.764Z,98.90
2018-08-11T09:14:05.144Z,98.10
2018-08-11T09:16:33.464Z,98.60
2018-08-11T09:19:01.752Z,99.60
2018-08-11T09:21:30.124Z,97.80
2018-08-11T09:23:58.494Z,96.80
2018-08-11T09:26:26.809Z,97.70
2018-08-11T09:28:55.123Z,95.80
2018-08-11T09:31:23.463Z,95.70
2018-08-11T09:33:51.792Z,95.10
2018-08-11T09:36:20.145Z,97.40
2018-08-11T09:38:48.448Z,96.70
2018-08-11T09:41:17.415Z,94.10
2018-08-11T09:43:45.737Z,94.00
2018-08-11T09:46:14.045Z,94.20
2018-08-11T09:48:42.406Z,95.60
2018-08-11T09:51:10.808Z,94.70
2018-08-11T09:53:39.132Z,93.50
2018-08-11T09:56:07.443Z,92.80
2018-08-11T09:58:35.796Z,92.60
2018-08-11T10:01:09.654Z,92.90
2018-08-11T10:03:38.398Z,92.20
2018-08-11T10:06:06.836Z,93.20
2018-08-11T10:08:35.203Z,91.50
2018-08-11T10:11:03.536Z,90.90
2018-08-11T10:13:32.728Z,91.50
2018-08-11T10:16:01.544Z,91.00
2018-08-11T10:18:30.290Z,91.70
2018-08-11T10:20:58.535Z,90.60
2018-08-11T10:23:26.860Z,90.30
2018-08-11T10:25:55.167Z,90.50
2018-08-11T10:28:23.480Z,89.50
2018-08-11T10:30:51.784Z,91.60
2018-08-11T10:33:20.107Z,89.70
2018-08-11T10:35:49.111Z,89.10
2018-08-11T10:38:17.556Z,89.70
2018-08-11T10:40:45.848Z,90.10
2018-08-11T10:43:14.205Z,90.70
2018-08-11T10:45:42.500Z,91.00
2018-08-11T10:48:10.808Z,91.00
2018-08-11T10:50:39.096Z,90.20
2018-08-11T10:53:07.631Z,89.80
2018-08-11T10:55:36.657Z,84.20
2018-08-11T10:58:05.260Z,83.00
2018-08-11T11:00:33.552Z,82.00
2018-08-11T11:03:01.920Z,83.20
2018-08-11T11:05:30.223Z,83.00
2018-08-11T11:07:58.559Z,83.00
2018-08-11T11:10:26.880Z,85.20
2018-08-11T11:12:55.196Z,84.20
2018-08-11T11:15:23.497Z,83.60
2018-08-11T11:17:51.816Z,83.40
2018-08-11T11:20:20.106Z,82.40
2018-08-11T11:22:48.427Z,84.20
2018-08-11T11:25:16.721Z,82.00
2018-08-11T11:27:45.040Z,83.90
2018-08-11T11:30:13.328Z,82.90
2018-08-11T11:32:41.640Z,82.10
2018-08-11T11:35:09.955Z,82.20
2018-08-11T11:37:38.276Z,82.20
2018-08-11T11:40:07.063Z,81.00
2018-08-11T11:42:35.379Z,83.10
2018-08-11T11:45:03.708Z,82.10
2018-08-11T11:47:32.037Z,81.50
2018-08-11T11:50:00.332Z,81.70
2018-08-11T11:52:28.664Z,81.90
2018-08-11T11:54:57.051Z,83.30
2018-08-11T11:57:25.381Z,85.80
2018-08-11T11:59:53.725Z,82.00
2018-08-11T12:02:22.028Z,85.40
2018-08-11T12:04:50.349Z,86.00
2018-08-11T12:07:18.670Z,85.70
2018-08-11T12:09:46.979Z,86.40
2018-08-11T12:12:15.267Z,86.80
2018-08-11T12:14:43.597Z,86.40
2018-08-11T12:17:11.908Z,87.70
2018-08-11T12:19:40.708Z,88.50
2018-08-11T12:22:15.669Z,88.40
2018-08-11T12:24:43.992Z,88.30
2018-08-11T12:27:12.288Z,87.80
2018-08-11T12:29:40.640Z,88.40
2018-08-11T12:32:08.947Z,88.50
2018-08-11T12:34:37.324Z,88.20
2018-08-11T12:37:05.627Z,89.30
2018-08-11T12:39:33.931Z,88.30
2018-08-11T12:42:02.229Z,87.60
2018-08-11T12:44:30.563Z,85.00
2018-08-11T12:46:58.862Z,87.10
2018-08-11T12:49:27.200Z,85.30
2018-08-11T12:51:55.491Z,86.80
2018-08-11T12:54:23.803Z,87.40
2018-08-11T12:56:52.129Z,87.40
2018-08-11T12:59:20.432Z,87.30
2018-08-11T13:01:48.876Z,86.70
2018-08-11T13:04:17.188Z,86.90
2018-08-11T13:06:45.507Z,86.30
2018-08-11T13:09:13.836Z,86.10
2018-08-11T13:11:42.132Z,86.60
2018-08-11T13:14:10.464Z,88.40
2018-08-11T13:16:38.761Z,88.70
2018-08-11T13:19:07.196Z,88.10
2018-08-11T13:21:35.840Z,89.00
2018-08-11T13:24:04.168Z,88.40
2018-08-11T13:26:32.488Z,88.60
2018-08-11T13:29:00.800Z,89.20
2018-08-11T13:31:29.168Z,86.40
2018-08-11T13:33:57.480Z,87.20
2018-08-11T13:36:25.771Z,87.00
2018-08-11T13:38:54.098Z,88.80
2018-08-11T13:41:22.412Z,88.40
2018-08-11T13:43:50.967Z,85.20
2018-08-11T13:46:19.271Z,86.40
2018-08-11T13:48:47.589Z,84.40
2018-08-11T13:51:15.908Z,83.40
2018-08-11T13:53:44.229Z,83.50
2018-08-11T13:56:13.570Z,83.80
2018-08-11T13:58:41.891Z,84.70
2018-08-11T14:01:10.232Z,85.30
2018-08-11T14:03:38.524Z,84.40
2018-08-11T14:06:06.926Z,84.20
2018-08-11T14:08:35.231Z,84.60
2018-08-11T14:11:03.543Z,83.30
2018-08-11T14:13:31.851Z,83.70
2018-08-11T14:16:00.145Z,84.50
2018-08-11T14:18:28.440Z,85.20
2018-08-11T14:20:56.756Z,84.30
2018-08-11T14:23:25.052Z,83.90
2018-08-11T14:25:53.391Z,82.80
2018-08-11T14:28:21.687Z,83.40
2018-08-11T14:30:50.003Z,82.10
2018-08-11T14:33:18.311Z,82.90
2018-08-11T14:35:46.625Z,83.40
2018-08-11T14:38:14.916Z,83.20
2018-08-11T14:40:43.232Z,82.50
2018-08-11T14:43:11.545Z,83.90
2018-08-11T14:45:39.868Z,81.10
2018-08-11T14:48:08.164Z,83.40
2018-08-11T14:50:36.576Z,81.10
2018-08-11T14:53:04.821Z,79.60
2018-08-11T14:55:33.157Z,79.20
2018-08-11T14:58:01.488Z,80.10
2018-08-11T15:00:29.829Z,79.80
2018-08-11T15:02:58.182Z,81.50
2018-08-11T15:05:26.511Z,79.40
2018-08-11T15:07:54.804Z,83.40
2018-08-11T15:10:23.129Z,80.30
2018-08-11T15:12:51.436Z,77.70
2018-08-11T15:15:19.764Z,78.90
2018-08-11T15:17:48.056Z,80.60
2018-08-11T15:20:16.368Z,81.50
2018-08-11T15:22:44.663Z,78.90
2018-08-11T15:25:12.978Z,78.20
2018-08-11T15:27:41.318Z,74.90
2018-08-11T15:30:11.299Z,78.90
2018-08-11T15:32:39.617Z,74.70
2018-08-11T15:35:09.007Z,76.00
2018-08-11T15:37:37.332Z,74.00
2018-08-11T15:40:06.300Z,76.30
2018-08-11T15:42:34.875Z,72.70
2018-08-11T15:45:03.224Z,73.10
2018-08-11T15:47:32.559Z,73.20
2018-08-11T15:50:00.892Z,72.70
2018-08-11T15:52:29.212Z,71.00
2018-08-11T15:54:57.536Z,71.50
2018-08-11T15:57:25.831Z,70.60
2018-08-11T15:59:54.160Z,70.80
2018-08-11T16:02:22.471Z,69.30
2018-08-11T16:04:50.775Z,70.10
2018-08-11T16:07:19.059Z,70.30
2018-08-11T16:09:47.429Z,69.60
2018-08-11T16:12:15.723Z,69.60
2018-08-11T16:14:44.088Z,68.30
2018-08-11T16:17:12.448Z,68.20
2018-08-11T16:19:40.763Z,67.50
2018-08-11T16:22:09.059Z,68.30
2018-08-11T16:24:37.376Z,69.00
2018-08-11T16:27:05.879Z,68.30
2018-08-11T16:29:34.204Z,71.50
2018-08-11T16:32:02.499Z,67.10
2018-08-11T16:34:30.796Z,69.20
2018-08-11T16:36:59.116Z,68.60
2018-08-11T16:39:27.434Z,66.90
2018-08-11T16:41:55.782Z,67.20
2018-08-11T16:44:24.080Z,67.60
2018-08-11T16:46:52.400Z,67.40
2018-08-11T16:49:20.712Z,67.40
2018-08-11T16:51:49.027Z,68.40
2018-08-11T16:54:17.322Z,67.40
2018-08-11T16:56:45.660Z,68.90
2018-08-11T16:59:13.964Z,71.60
2018-08-11T17:01:42.281Z,69.80
2018-08-11T17:04:10.576Z,72.40
2018-08-11T17:06:38.888Z,71.20
2018-08-11T17:09:09.607Z,70.50
2018-08-11T17:11:37.949Z,71.50
2018-08-11T17:14:06.701Z,70.00
2018-08-11T17:16:35.080Z,71.00
2018-08-11T17:19:03.400Z,71.10
2018-08-11T17:21:31.718Z,70.50
2018-08-11T17:24:00.476Z,71.00
2018-08-11T17:26:28.788Z,71.50
2018-08-11T17:28:57.108Z,72.10
2018-08-11T17:31:25.547Z,72.00
2018-08-11T17:33:53.948Z,70.50
2018-08-11T17:36:22.267Z,71.20
2018-08-11T17:38:50.646Z,72.10
2018-08-11T17:41:18.955Z,71.40
2018-08-11T17:43:47.256Z,70.90
2018-08-11T17:46:15.573Z,71.20
2018-08-11T17:48:43.879Z,70.80
2018-08-11T17:51:12.188Z,71.20
2018-08-11T17:53:40.492Z,71.10
2018-08-11T17:56:08.824Z,71.40
2018-08-11T17:58:37.124Z,71.00
2018-08-11T18:01:05.431Z,70.90
2018-08-11T18:03:33.724Z,72.80
2018-08-11T18:06:02.034Z,72.00
2018-08-11T18:08:30.327Z,71.50
2018-08-11T18:10:58.644Z,72.20
2018-08-11T18:13:26.932Z,71.30
2018-08-11T18:15:55.252Z,71.90
2018-08-11T18:18:23.560Z,71.80
2018-08-11T18:20:51.880Z,73.30
2018-08-11T18:23:20.175Z,73.10
2018-08-11T18:25:48.499Z,71.30
2018-08-11T18:28:16.788Z,72.10
2018-08-11T18:30:45.108Z,71.00
2018-08-11T18:33:13.406Z,71.00
2018-08-11T18:35:41.785Z,71.20
2018-08-11T18:38:10.077Z,71.10
2018-08-11T18:40:38.400Z,70.70
2018-08-11T18:43:06.692Z,71.00
2018-08-11T18:45:34.988Z,72.30
2018-08-11T18:48:03.308Z,71.80
2018-08-11T18:50:31.612Z,71.40
2018-08-11T18:52:59.932Z,72.60
2018-08-11T18:55:28.253Z,72.90
2018-08-11T18:57:56.572Z,73.30
2018-08-11T19:00:24.888Z,74.20
2018-08-11T19:02:53.206Z,71.20
2018-08-11T19:05:21.524Z,72.80
2018-08-11T19:07:49.835Z,72.00
2018-08-11T19:10:18.144Z,74.00
2018-08-11T19:12:46.471Z,71.50
2018-08-11T19:15:14.904Z,74.40
2018-08-11T19:17:43.236Z,72.10
2018-08-11T19:20:12.705Z,72.90
2018-08-11T19:22:41.027Z,73.60
2018-08-11T19:25:10.536Z,73.80
2018-08-11T19:27:38.895Z,73.90
2018-08-11T19:30:08.532Z,76.60
2018-08-11T19:32:37.176Z,77.50
2018-08-11T19:35:05.939Z,76.40
2018-08-11T19:37:34.256Z,84.20
2018-08-11T19:40:02.548Z,91.30
2018-08-11T19:42:30.897Z,92.80
2018-08-11T19:44:59.236Z,77.60
2018-08-11T19:47:27.549Z,93.00
2018-08-11T19:49:55.968Z,93.50
2018-08-11T19:52:24.316Z,93.40
2018-08-11T19:54:52.710Z,92.80
2018-08-11T19:57:21.184Z,93.10
2018-08-11T19:59:49.494Z,94.90
2018-08-11T20:02:17.833Z,90.40
2018-08-11T20:04:46.190Z,91.40
2018-08-11T20:07:14.553Z,92.30
2018-08-11T20:09:42.840Z,93.70
2018-08-11T20:12:11.167Z,91.90
2018-08-11T20:14:39.460Z,90.50
2018-08-11T20:17:07.772Z,91.90
2018-08-11T20:19:36.067Z,93.60
2018-08-11T20:22:04.408Z,90.50
2018-08-11T20:24:32.712Z,94.40
2018-08-11T20:27:01.032Z,91.20
2018-08-11T20:29:29.345Z,96.20
2018-08-11T20:31:57.670Z,96.60
2018-08-11T20:34:25.977Z,96.30
2018-08-11T20:36:54.292Z,97.50
2018-08-11T20:39:22.591Z,97.00
2018-08-11T20:41:50.908Z,97.80
2018-08-11T20:44:19.215Z,98.10
2018-08-11T20:46:47.540Z,97.80
2018-08-11T20:49:15.844Z,97.90
2018-08-11T20:51:44.172Z,97.70
2018-08-11T20:54:12.472Z,96.00
2018-08-11T20:56:40.864Z,98.10
2018-08-11T20:59:09.189Z,98.50
2018-08-11T21:01:37.606Z,98.40
2018-08-11T21:04:06.212Z,98.10
2018-08-11T21:06:34.924Z,96.70
2018-08-11T21:09:03.375Z,97.60
2018-08-11T21:11:31.721Z,95.00
2018-08-11T21:14:00.040Z,97.80
2018-08-11T21:16:28.344Z,98.30
2018-08-11T21:18:56.656Z,96.80
2018-08-11T21:21:24.952Z,94.00
2018-08-11T21:23:53.392Z,98.60
2018-08-11T21:26:21.625Z,98.10
2018-08-11T21:28:49.941Z,99.70
2018-08-11T21:31:18.241Z,99.90
2018-08-11T21:33:46.560Z,99.90
2018-08-11T21:36:14.918Z,98.70
2018-08-11T21:38:43.234Z,99.00
2018-08-11T21:41:11.540Z,95.50
2018-08-11T21:43:39.908Z,92.60
2018-08-11T21:46:08.221Z,94.50
2018-08-11T21:48:36.545Z,93.70
2018-08-11T21:51:04.871Z,94.90
2018-08-11T21:53:34.744Z,99.90
2018-08-11T21:56:03.083Z,94.20
2018-08-11T21:58:31.395Z,95.70
2018-08-11T22:01:10.052Z,95.00
2018-08-11T22:03:39.069Z,94.30
2018-08-11T22:06:07.447Z,95.40
2018-08-11T22:08:35.784Z,96.50
2018-08-11T22:11:04.113Z,99.90
2018-08-11T22:13:32.461Z,99.90
2018-08-11T22:16:01.652Z,99.90
2018-08-11T22:18:29.977Z,97.10
2018-08-11T22:20:58.296Z,97.90
2018-08-11T22:23:26.623Z,94.40
2018-08-11T22:25:54.960Z,95.70
2018-08-11T22:28:23.331Z,99.00
2018-08-11T22:30:51.644Z,95.40
2018-08-11T22:33:20.001Z,99.10
2018-08-11T22:35:48.329Z,99.00
2018-08-11T22:38:16.669Z,99.90
2018-08-11T22:40:44.972Z,99.90
2018-08-11T22:43:13.287Z,99.90
2018-08-11T22:45:41.592Z,99.90
2018-08-11T22:48:09.909Z,97.80
2018-08-11T22:50:38.225Z,99.90
2018-08-11T22:53:06.575Z,95.00
2018-08-11T22:55:34.908Z,94.90
2018-08-11T22:58:03.256Z,97.80
2018-08-11T23:00:31.567Z,95.60
2018-08-11T23:02:59.900Z,95.80
2018-08-11T23:05:28.204Z,96.50
2018-08-11T23:07:56.533Z,98.50
2018-08-11T23:10:24.831Z,99.90
2018-08-11T23:12:53.160Z,99.90
2018-08-11T23:15:21.471Z,99.90
2018-08-11T23:17:50.635Z,99.90
2018-08-11T23:20:18.945Z,96.10
2018-08-11T23:22:47.284Z,96.50
2018-08-11T23:25:16.199Z,96.50
2018-08-11T23:27:44.594Z,96.40
2018-08-11T23:30:14.852Z,97.80
2018-08-11T23:32:43.727Z,97.10
2018-08-11T23:35:12.443Z,97.80
2018-08-11T23:37:41.336Z,98.40
2018-08-11T23:40:10.559Z,98.70
2018-08-11T23:42:38.964Z,97.90
2018-08-11T23:45:11.257Z,99.90
2018-08-11T23:47:40.121Z,99.00
2018-08-11T23:50:09.096Z,99.30
2018-08-11T23:52:37.408Z,97.30
2018-08-11T23:55:06.471Z,97.60
2018-08-11T23:57:35.124Z,99.90
